sensor_id;sensor_type;location;lat;lon;timestamp;temperature;humidity
18388;DHT22;9320;50.256;19.026;2023-06-24T00:01:32;21.20;97.40
18388;DHT22;9320;50.256;19.026;2023-06-24T00:04:02;21.10;97.60
18388;DHT22;9320;50.256;19.026;2023-06-24T00:06:30;21.10;97.60
18388;DHT22;9320;50.256;19.026;2023-06-24T00:08:58;21.10;97.70
18388;DHT22;9320;50.256;19.026;2023-06-24T00:11:29;21.10;98.10
18388;DHT22;9320;50.256;19.026;2023-06-24T00:13:57;21.10;98.00
18388;DHT22;9320;50.256;19.026;2023-06-24T00:16:25;21.10;97.90
18388;DHT22;9320;50.256;19.026;2023-06-24T00:18:55;21.10;98.10
18388;DHT22;9320;50.256;19.026;2023-06-24T00:21:29;21.10;98.10
18388;DHT22;9320;50.256;19.026;2023-06-24T00:23:58;21.10;98.50
18388;DHT22;9320;50.256;19.026;2023-06-24T00:26:31;21.00;98.50
18388;DHT22;9320;50.256;19.026;2023-06-24T00:28:59;21.10;98.50
18388;DHT22;9320;50.256;19.026;2023-06-24T00:31:27;21.10;98.70
18388;DHT22;9320;50.256;19.026;2023-06-24T00:33:55;21.00;98.60
18388;DHT22;9320;50.256;19.026;2023-06-24T00:36:23;21.00;99.10
18388;DHT22;9320;50.256;19.026;2023-06-24T00:38:55;21.00;99.10
18388;DHT22;9320;50.256;19.026;2023-06-24T00:41:23;21.00;99.20
18388;DHT22;9320;50.256;19.026;2023-06-24T00:43:52;21.00;99.90
18388;DHT22;9320;50.256;19.026;2023-06-24T00:46:20;20.90;99.60
18388;DHT22;9320;50.256;19.026;2023-06-24T00:48:49;20.90;99.90
18388;DHT22;9320;50.256;19.026;2023-06-24T00:51:17;20.80;99.90
18388;DHT22;9320;50.256;19.026;2023-06-24T00:53:46;20.90;99.90
18388;DHT22;9320;50.256;19.026;2023-06-24T00:56:16;20.80;99.90
18388;DHT22;9320;50.256;19.026;2023-06-24T00:58:45;20.80;99.90
18388;DHT22;9320;50.256;19.026;2023-06-24T01:01:17;20.80;99.90
18388;DHT22;9320;50.256;19.026;2023-06-24T01:03:46;20.90;99.90
18388;DHT22;9320;50.256;19.026;2023-06-24T01:06:15;20.80;99.90
18388;DHT22;9320;50.256;19.026;2023-06-24T01:08:44;20.80;99.90
18388;DHT22;9320;50.256;19.026;2023-06-24T01:11:18;20.70;99.90
18388;DHT22;9320;50.256;19.026;2023-06-24T01:13:46;20.80;99.90
18388;DHT22;9320;50.256;19.026;2023-06-24T01:16:32;20.80;99.90
18388;DHT22;9320;50.256;19.026;2023-06-24T01:19:07;20.80;99.90
18388;DHT22;9320;50.256;19.026;2023-06-24T01:21:50;20.80;99.90
18388;DHT22;9320;50.256;19.026;2023-06-24T01:24:48;20.70;99.90
18388;DHT22;9320;50.256;19.026;2023-06-24T01:27:46;20.70;99.90
18388;DHT22;9320;50.256;19.026;2023-06-24T01:30:32;20.70;99.90
18388;DHT22;9320;50.256;19.026;2023-06-24T01:33:08;20.70;99.90
18388;DHT22;9320;50.256;19.026;2023-06-24T01:35:38;20.70;99.90
18388;DHT22;9320;50.256;19.026;2023-06-24T01:38:10;20.70;99.90
18388;DHT22;9320;50.256;19.026;2023-06-24T01:40:44;20.70;99.90
18388;DHT22;9320;50.256;19.026;2023-06-24T01:43:13;20.70;99.90
18388;DHT22;9320;50.256;19.026;2023-06-24T01:45:45;20.70;99.90
18388;DHT22;9320;50.256;19.026;2023-06-24T01:48:19;20.60;99.90
18388;DHT22;9320;50.256;19.026;2023-06-24T01:50:55;20.60;99.90
18388;DHT22;9320;50.256;19.026;2023-06-24T01:53:27;20.60;99.90
18388;DHT22;9320;50.256;19.026;2023-06-24T01:55:57;20.60;99.90
18388;DHT22;9320;50.256;19.026;2023-06-24T01:58:28;20.60;99.90
18388;DHT22;9320;50.256;19.026;2023-06-24T02:00:57;20.50;99.90
18388;DHT22;9320;50.256;19.026;2023-06-24T02:03:28;20.60;99.90
18388;DHT22;9320;50.256;19.026;2023-06-24T02:05:57;20.60;99.90
18388;DHT22;9320;50.256;19.026;2023-06-24T02:08:30;20.60;99.90
18388;DHT22;9320;50.256;19.026;2023-06-24T02:11:01;20.50;99.90
18388;DHT22;9320;50.256;19.026;2023-06-24T02:13:31;20.60;99.90
18388;DHT22;9320;50.256;19.026;2023-06-24T02:16:03;20.50;99.90
18388;DHT22;9320;50.256;19.026;2023-06-24T02:18:35;20.50;99.90
18388;DHT22;9320;50.256;19.026;2023-06-24T02:21:05;20.50;99.90
18388;DHT22;9320;50.256;19.026;2023-06-24T02:23:34;20.50;99.90
18388;DHT22;9320;50.256;19.026;2023-06-24T02:26:03;20.50;99.90
18388;DHT22;9320;50.256;19.026;2023-06-24T02:28:33;20.50;99.90
18388;DHT22;9320;50.256;19.026;2023-06-24T02:31:02;20.50;99.90
18388;DHT22;9320;50.256;19.026;2023-06-24T02:33:30;20.50;99.90
18388;DHT22;9320;50.256;19.026;2023-06-24T02:36:00;20.50;99.90
18388;DHT22;9320;50.256;19.026;2023-06-24T02:38:28;20.50;99.90
18388;DHT22;9320;50.256;19.026;2023-06-24T02:40:56;20.50;99.90
18388;DHT22;9320;50.256;19.026;2023-06-24T02:43:25;20.50;99.90
18388;DHT22;9320;50.256;19.026;2023-06-24T02:45:53;20.50;99.90
18388;DHT22;9320;50.256;19.026;2023-06-24T02:48:21;20.50;99.90
18388;DHT22;9320;50.256;19.026;2023-06-24T02:50:50;20.50;99.90
18388;DHT22;9320;50.256;19.026;2023-06-24T02:53:20;20.50;99.90
18388;DHT22;9320;50.256;19.026;2023-06-24T02:55:49;20.50;99.90
18388;DHT22;9320;50.256;19.026;2023-06-24T02:58:17;20.50;99.90
18388;DHT22;9320;50.256;19.026;2023-06-24T03:00:46;20.50;99.90
18388;DHT22;9320;50.256;19.026;2023-06-24T03:03:17;20.50;99.90
18388;DHT22;9320;50.256;19.026;2023-06-24T03:05:46;20.50;99.90
18388;DHT22;9320;50.256;19.026;2023-06-24T03:08:15;20.40;99.90
18388;DHT22;9320;50.256;19.026;2023-06-24T03:10:45;20.40;99.90
18388;DHT22;9320;50.256;19.026;2023-06-24T03:13:13;20.40;99.90
18388;DHT22;9320;50.256;19.026;2023-06-24T03:15:41;20.40;99.90
18388;DHT22;9320;50.256;19.026;2023-06-24T03:18:09;20.40;99.90
18388;DHT22;9320;50.256;19.026;2023-06-24T03:20:37;20.40;99.90
18388;DHT22;9320;50.256;19.026;2023-06-24T03:23:05;20.50;99.90
18388;DHT22;9320;50.256;19.026;2023-06-24T03:25:34;20.50;99.90
18388;DHT22;9320;50.256;19.026;2023-06-24T03:28:03;20.50;99.90
18388;DHT22;9320;50.256;19.026;2023-06-24T03:30:34;20.40;99.90
18388;DHT22;9320;50.256;19.026;2023-06-24T03:33:02;20.50;99.90
18388;DHT22;9320;50.256;19.026;2023-06-24T03:35:31;20.40;99.90
18388;DHT22;9320;50.256;19.026;2023-06-24T03:38:00;20.50;99.90
18388;DHT22;9320;50.256;19.026;2023-06-24T03:40:28;20.50;99.90
18388;DHT22;9320;50.256;19.026;2023-06-24T03:42:56;20.50;99.90
18388;DHT22;9320;50.256;19.026;2023-06-24T03:45:26;20.50;99.90
18388;DHT22;9320;50.256;19.026;2023-06-24T03:47:54;20.50;99.90
18388;DHT22;9320;50.256;19.026;2023-06-24T03:50:22;20.50;99.90
18388;DHT22;9320;50.256;19.026;2023-06-24T03:52:50;20.50;99.90
18388;DHT22;9320;50.256;19.026;2023-06-24T03:55:18;20.50;99.90
18388;DHT22;9320;50.256;19.026;2023-06-24T03:57:46;20.50;99.90
18388;DHT22;9320;50.256;19.026;2023-06-24T04:00:14;20.50;99.90
18388;DHT22;9320;50.256;19.026;2023-06-24T04:02:45;20.50;99.90
18388;DHT22;9320;50.256;19.026;2023-06-24T04:05:13;20.60;99.90
18388;DHT22;9320;50.256;19.026;2023-06-24T04:07:41;20.50;99.90
18388;DHT22;9320;50.256;19.026;2023-06-24T04:10:14;20.50;99.90
18388;DHT22;9320;50.256;19.026;2023-06-24T04:12:42;20.40;99.90
18388;DHT22;9320;50.256;19.026;2023-06-24T04:15:10;20.30;99.90
18388;DHT22;9320;50.256;19.026;2023-06-24T04:17:38;20.30;99.90
18388;DHT22;9320;50.256;19.026;2023-06-24T04:20:08;20.30;99.90
18388;DHT22;9320;50.256;19.026;2023-06-24T04:22:37;20.20;99.90
18388;DHT22;9320;50.256;19.026;2023-06-24T04:25:06;20.20;99.90
18388;DHT22;9320;50.256;19.026;2023-06-24T04:27:34;20.20;99.90
18388;DHT22;9320;50.256;19.026;2023-06-24T04:30:03;20.20;99.90
18388;DHT22;9320;50.256;19.026;2023-06-24T04:32:32;20.20;99.90
18388;DHT22;9320;50.256;19.026;2023-06-24T04:35:00;20.20;99.90
18388;DHT22;9320;50.256;19.026;2023-06-24T04:37:29;20.20;99.90
18388;DHT22;9320;50.256;19.026;2023-06-24T04:39:58;20.20;99.90
18388;DHT22;9320;50.256;19.026;2023-06-24T04:42:26;20.20;99.90
18388;DHT22;9320;50.256;19.026;2023-06-24T04:44:54;20.30;99.90
18388;DHT22;9320;50.256;19.026;2023-06-24T04:47:22;20.30;99.90
18388;DHT22;9320;50.256;19.026;2023-06-24T04:49:50;20.30;99.90
18388;DHT22;9320;50.256;19.026;2023-06-24T04:52:18;20.40;99.90
18388;DHT22;9320;50.256;19.026;2023-06-24T04:54:47;20.40;99.90
18388;DHT22;9320;50.256;19.026;2023-06-24T04:57:24;20.30;99.90
18388;DHT22;9320;50.256;19.026;2023-06-24T04:59:52;20.20;99.90
18388;DHT22;9320;50.256;19.026;2023-06-24T05:02:20;20.10;99.90
18388;DHT22;9320;50.256;19.026;2023-06-24T05:04:48;20.00;99.90
18388;DHT22;9320;50.256;19.026;2023-06-24T05:07:16;20.00;99.90
18388;DHT22;9320;50.256;19.026;2023-06-24T05:09:47;20.00;99.90
18388;DHT22;9320;50.256;19.026;2023-06-24T05:12:15;19.90;99.90
18388;DHT22;9320;50.256;19.026;2023-06-24T05:14:43;20.00;99.90
18388;DHT22;9320;50.256;19.026;2023-06-24T05:17:11;20.00;99.90
18388;DHT22;9320;50.256;19.026;2023-06-24T05:19:39;19.90;99.90
18388;DHT22;9320;50.256;19.026;2023-06-24T05:22:08;19.90;99.90
18388;DHT22;9320;50.256;19.026;2023-06-24T05:24:36;20.00;99.90
18388;DHT22;9320;50.256;19.026;2023-06-24T05:27:06;20.00;99.90
18388;DHT22;9320;50.256;19.026;2023-06-24T05:29:34;20.00;99.90
18388;DHT22;9320;50.256;19.026;2023-06-24T05:32:03;20.00;99.90
18388;DHT22;9320;50.256;19.026;2023-06-24T05:34:31;20.00;99.90
18388;DHT22;9320;50.256;19.026;2023-06-24T05:37:00;20.00;99.90
18388;DHT22;9320;50.256;19.026;2023-06-24T05:39:30;19.90;99.90
18388;DHT22;9320;50.256;19.026;2023-06-24T05:41:58;19.90;99.90
18388;DHT22;9320;50.256;19.026;2023-06-24T05:44:29;20.00;99.90
18388;DHT22;9320;50.256;19.026;2023-06-24T05:46:58;20.00;99.90
18388;DHT22;9320;50.256;19.026;2023-06-24T05:49:26;20.00;99.90
18388;DHT22;9320;50.256;19.026;2023-06-24T05:51:54;20.00;99.90
18388;DHT22;9320;50.256;19.026;2023-06-24T05:54:22;20.00;99.90
18388;DHT22;9320;50.256;19.026;2023-06-24T05:56:50;19.90;99.90
18388;DHT22;9320;50.256;19.026;2023-06-24T05:59:18;19.90;99.90
18388;DHT22;9320;50.256;19.026;2023-06-24T06:01:47;19.80;99.90
18388;DHT22;9320;50.256;19.026;2023-06-24T06:04:15;19.80;99.90
18388;DHT22;9320;50.256;19.026;2023-06-24T06:06:43;19.70;99.90
18388;DHT22;9320;50.256;19.026;2023-06-24T06:09:11;19.70;99.90
18388;DHT22;9320;50.256;19.026;2023-06-24T06:11:40;19.70;99.90
18388;DHT22;9320;50.256;19.026;2023-06-24T06:14:08;19.60;99.90
18388;DHT22;9320;50.256;19.026;2023-06-24T06:16:36;19.60;99.90
18388;DHT22;9320;50.256;19.026;2023-06-24T06:19:06;19.60;99.90
18388;DHT22;9320;50.256;19.026;2023-06-24T06:21:36;19.70;99.90
18388;DHT22;9320;50.256;19.026;2023-06-24T06:24:05;19.80;99.90
18388;DHT22;9320;50.256;19.026;2023-06-24T06:26:33;19.90;99.90
18388;DHT22;9320;50.256;19.026;2023-06-24T06:29:01;20.00;99.90
18388;DHT22;9320;50.256;19.026;2023-06-24T06:31:29;20.00;99.90
18388;DHT22;9320;50.256;19.026;2023-06-24T06:33:57;20.00;99.90
18388;DHT22;9320;50.256;19.026;2023-06-24T06:36:27;20.10;99.90
18388;DHT22;9320;50.256;19.026;2023-06-24T06:38:55;20.10;99.90
18388;DHT22;9320;50.256;19.026;2023-06-24T06:41:23;20.10;99.90
18388;DHT22;9320;50.256;19.026;2023-06-24T06:43:51;20.20;99.90
18388;DHT22;9320;50.256;19.026;2023-06-24T06:46:20;20.20;99.90
18388;DHT22;9320;50.256;19.026;2023-06-24T06:48:48;20.30;99.90
18388;DHT22;9320;50.256;19.026;2023-06-24T06:51:16;20.40;99.90
18388;DHT22;9320;50.256;19.026;2023-06-24T06:53:47;20.40;99.90
18388;DHT22;9320;50.256;19.026;2023-06-24T06:56:18;20.40;99.90
18388;DHT22;9320;50.256;19.026;2023-06-24T06:58:46;20.20;99.90
18388;DHT22;9320;50.256;19.026;2023-06-24T07:01:14;20.40;99.90
18388;DHT22;9320;50.256;19.026;2023-06-24T07:03:42;20.30;99.90
18388;DHT22;9320;50.256;19.026;2023-06-24T07:06:10;20.40;99.90
18388;DHT22;9320;50.256;19.026;2023-06-24T07:08:38;20.60;99.90
18388;DHT22;9320;50.256;19.026;2023-06-24T07:11:08;20.50;99.90
18388;DHT22;9320;50.256;19.026;2023-06-24T07:13:36;20.60;99.90
18388;DHT22;9320;50.256;19.026;2023-06-24T07:16:04;20.70;99.90
18388;DHT22;9320;50.256;19.026;2023-06-24T07:18:32;20.50;99.90
18388;DHT22;9320;50.256;19.026;2023-06-24T07:21:00;20.60;99.90
18388;DHT22;9320;50.256;19.026;2023-06-24T07:23:29;20.70;99.90
18388;DHT22;9320;50.256;19.026;2023-06-24T07:25:57;20.60;99.90
18388;DHT22;9320;50.256;19.026;2023-06-24T07:28:30;20.60;99.90
18388;DHT22;9320;50.256;19.026;2023-06-24T07:30:59;20.60;99.90
18388;DHT22;9320;50.256;19.026;2023-06-24T07:33:27;20.70;99.90
18388;DHT22;9320;50.256;19.026;2023-06-24T07:35:57;20.80;99.90
18388;DHT22;9320;50.256;19.026;2023-06-24T07:38:25;20.90;99.90
18388;DHT22;9320;50.256;19.026;2023-06-24T07:40:53;20.80;99.90
18388;DHT22;9320;50.256;19.026;2023-06-24T07:43:21;20.80;99.90
18388;DHT22;9320;50.256;19.026;2023-06-24T07:45:50;20.80;99.90
18388;DHT22;9320;50.256;19.026;2023-06-24T07:48:18;20.80;99.90
18388;DHT22;9320;50.256;19.026;2023-06-24T07:50:46;20.70;99.90
18388;DHT22;9320;50.256;19.026;2023-06-24T07:53:14;20.70;99.90
18388;DHT22;9320;50.256;19.026;2023-06-24T07:55:43;20.90;99.90
18388;DHT22;9320;50.256;19.026;2023-06-24T07:58:11;20.90;99.90
18388;DHT22;9320;50.256;19.026;2023-06-24T08:00:39;21.00;99.90
18388;DHT22;9320;50.256;19.026;2023-06-24T08:03:08;20.90;99.90
18388;DHT22;9320;50.256;19.026;2023-06-24T08:05:37;20.80;99.90
18388;DHT22;9320;50.256;19.026;2023-06-24T08:08:06;20.90;99.90
18388;DHT22;9320;50.256;19.026;2023-06-24T08:10:34;21.00;99.90
18388;DHT22;9320;50.256;19.026;2023-06-24T08:13:02;21.00;99.90
18388;DHT22;9320;50.256;19.026;2023-06-24T08:15:30;21.00;99.90
18388;DHT22;9320;50.256;19.026;2023-06-24T08:17:58;21.00;99.90
18388;DHT22;9320;50.256;19.026;2023-06-24T08:20:27;21.10;99.90
18388;DHT22;9320;50.256;19.026;2023-06-24T08:22:55;21.20;99.90
18388;DHT22;9320;50.256;19.026;2023-06-24T08:25:23;21.20;99.90
18388;DHT22;9320;50.256;19.026;2023-06-24T08:27:51;21.10;99.90
18388;DHT22;9320;50.256;19.026;2023-06-24T08:30:20;21.00;99.90
18388;DHT22;9320;50.256;19.026;2023-06-24T08:32:47;21.10;99.90
18388;DHT22;9320;50.256;19.026;2023-06-24T08:35:16;21.20;99.90
18388;DHT22;9320;50.256;19.026;2023-06-24T08:37:45;21.30;99.90
18388;DHT22;9320;50.256;19.026;2023-06-24T08:40:13;21.30;99.90
18388;DHT22;9320;50.256;19.026;2023-06-24T08:42:43;21.30;99.90
18388;DHT22;9320;50.256;19.026;2023-06-24T08:45:11;21.40;99.90
18388;DHT22;9320;50.256;19.026;2023-06-24T08:47:39;21.30;99.90
18388;DHT22;9320;50.256;19.026;2023-06-24T08:50:11;21.20;99.90
18388;DHT22;9320;50.256;19.026;2023-06-24T08:52:42;21.20;99.90
18388;DHT22;9320;50.256;19.026;2023-06-24T08:55:16;21.20;99.90
18388;DHT22;9320;50.256;19.026;2023-06-24T08:57:46;21.10;99.90
18388;DHT22;9320;50.256;19.026;2023-06-24T09:00:15;21.10;99.90
18388;DHT22;9320;50.256;19.026;2023-06-24T09:02:43;21.10;99.90
18388;DHT22;9320;50.256;19.026;2023-06-24T09:05:12;21.00;99.90
18388;DHT22;9320;50.256;19.026;2023-06-24T09:07:40;21.00;99.90
18388;DHT22;9320;50.256;19.026;2023-06-24T09:10:09;21.20;99.90
18388;DHT22;9320;50.256;19.026;2023-06-24T09:12:39;21.30;99.90
18388;DHT22;9320;50.256;19.026;2023-06-24T09:15:14;21.50;99.90
18388;DHT22;9320;50.256;19.026;2023-06-24T09:17:44;21.70;99.90
18388;DHT22;9320;50.256;19.026;2023-06-24T09:20:13;21.80;99.90
18388;DHT22;9320;50.256;19.026;2023-06-24T09:22:41;21.80;99.90
18388;DHT22;9320;50.256;19.026;2023-06-24T09:25:09;21.90;99.90
18388;DHT22;9320;50.256;19.026;2023-06-24T09:27:38;22.00;99.90
18388;DHT22;9320;50.256;19.026;2023-06-24T09:30:17;22.10;99.50
18388;DHT22;9320;50.256;19.026;2023-06-24T09:32:46;22.20;98.70
18388;DHT22;9320;50.256;19.026;2023-06-24T09:35:16;22.30;98.40
18388;DHT22;9320;50.256;19.026;2023-06-24T09:37:49;22.40;98.00
18388;DHT22;9320;50.256;19.026;2023-06-24T09:40:17;22.50;96.80
18388;DHT22;9320;50.256;19.026;2023-06-24T09:42:51;22.40;96.30
18388;DHT22;9320;50.256;19.026;2023-06-24T09:45:22;22.40;96.50
18388;DHT22;9320;50.256;19.026;2023-06-24T09:47:50;22.50;96.50
18388;DHT22;9320;50.256;19.026;2023-06-24T09:50:18;22.90;96.60
18388;DHT22;9320;50.256;19.026;2023-06-24T09:52:48;23.10;95.10
18388;DHT22;9320;50.256;19.026;2023-06-24T09:55:18;23.00;95.00
18388;DHT22;9320;50.256;19.026;2023-06-24T09:57:47;23.00;94.20
18388;DHT22;9320;50.256;19.026;2023-06-24T10:00:20;23.00;94.40
18388;DHT22;9320;50.256;19.026;2023-06-24T10:02:51;22.80;94.80
18388;DHT22;9320;50.256;19.026;2023-06-24T10:05:24;22.60;96.30
18388;DHT22;9320;50.256;19.026;2023-06-24T10:07:52;22.50;97.10
18388;DHT22;9320;50.256;19.026;2023-06-24T10:10:20;22.60;97.60
18388;DHT22;9320;50.256;19.026;2023-06-24T10:12:48;22.50;97.40
18388;DHT22;9320;50.256;19.026;2023-06-24T10:15:16;22.50;96.90
18388;DHT22;9320;50.256;19.026;2023-06-24T10:17:46;22.30;97.60
18388;DHT22;9320;50.256;19.026;2023-06-24T10:20:23;22.10;98.30
18388;DHT22;9320;50.256;19.026;2023-06-24T10:22:52;22.10;98.40
18388;DHT22;9320;50.256;19.026;2023-06-24T10:25:20;22.00;98.80
18388;DHT22;9320;50.256;19.026;2023-06-24T10:27:53;22.00;99.10
18388;DHT22;9320;50.256;19.026;2023-06-24T10:30:21;22.00;98.90
18388;DHT22;9320;50.256;19.026;2023-06-24T10:32:52;21.80;99.00
18388;DHT22;9320;50.256;19.026;2023-06-24T10:35:25;21.70;99.40
18388;DHT22;9320;50.256;19.026;2023-06-24T10:37:57;21.70;99.60
18388;DHT22;9320;50.256;19.026;2023-06-24T10:40:36;21.70;99.40
18388;DHT22;9320;50.256;19.026;2023-06-24T10:43:32;21.60;99.90
18388;DHT22;9320;50.256;19.026;2023-06-24T10:46:00;21.70;99.90
18388;DHT22;9320;50.256;19.026;2023-06-24T10:48:29;21.90;99.30
18388;DHT22;9320;50.256;19.026;2023-06-24T10:50:57;21.80;99.00
18388;DHT22;9320;50.256;19.026;2023-06-24T10:53:26;21.70;99.90
18388;DHT22;9320;50.256;19.026;2023-06-24T10:55:57;21.80;99.90
18388;DHT22;9320;50.256;19.026;2023-06-24T10:58:25;22.10;99.10
18388;DHT22;9320;50.256;19.026;2023-06-24T11:00:53;22.20;97.60
18388;DHT22;9320;50.256;19.026;2023-06-24T11:03:35;22.10;97.20
18388;DHT22;9320;50.256;19.026;2023-06-24T11:06:04;22.20;96.90
18388;DHT22;9320;50.256;19.026;2023-06-24T11:08:32;22.30;97.00
18388;DHT22;9320;50.256;19.026;2023-06-24T11:11:00;22.10;96.90
18388;DHT22;9320;50.256;19.026;2023-06-24T11:13:33;21.90;97.30
18388;DHT22;9320;50.256;19.026;2023-06-24T11:16:01;21.60;98.00
18388;DHT22;9320;50.256;19.026;2023-06-24T11:18:38;21.40;98.20
18388;DHT22;9320;50.256;19.026;2023-06-24T11:21:08;21.30;99.30
18388;DHT22;9320;50.256;19.026;2023-06-24T11:23:36;21.10;99.40
18388;DHT22;9320;50.256;19.026;2023-06-24T11:26:05;21.10;99.50
18388;DHT22;9320;50.256;19.026;2023-06-24T11:28:33;21.10;99.60
18388;DHT22;9320;50.256;19.026;2023-06-24T11:31:06;21.00;99.30
18388;DHT22;9320;50.256;19.026;2023-06-24T11:33:35;21.00;99.80
18388;DHT22;9320;50.256;19.026;2023-06-24T11:36:10;21.00;99.80
18388;DHT22;9320;50.256;19.026;2023-06-24T11:38:38;21.00;99.90
18388;DHT22;9320;50.256;19.026;2023-06-24T11:41:06;21.00;99.90
18388;DHT22;9320;50.256;19.026;2023-06-24T11:43:34;20.90;99.90
18388;DHT22;9320;50.256;19.026;2023-06-24T11:46:02;20.80;99.90
18388;DHT22;9320;50.256;19.026;2023-06-24T11:48:30;20.80;99.90
18388;DHT22;9320;50.256;19.026;2023-06-24T11:50:58;20.60;99.90
18388;DHT22;9320;50.256;19.026;2023-06-24T11:53:40;20.50;99.90
18388;DHT22;9320;50.256;19.026;2023-06-24T11:56:10;20.50;99.90
18388;DHT22;9320;50.256;19.026;2023-06-24T11:58:38;20.40;99.90
18388;DHT22;9320;50.256;19.026;2023-06-24T12:01:06;20.40;99.90
18388;DHT22;9320;50.256;19.026;2023-06-24T12:03:35;20.40;99.90
18388;DHT22;9320;50.256;19.026;2023-06-24T12:06:03;20.40;99.90
18388;DHT22;9320;50.256;19.026;2023-06-24T12:08:32;20.40;99.90
18388;DHT22;9320;50.256;19.026;2023-06-24T12:11:17;20.40;99.90
18388;DHT22;9320;50.256;19.026;2023-06-24T12:13:45;20.50;99.90
18388;DHT22;9320;50.256;19.026;2023-06-24T12:16:13;20.80;99.30
18388;DHT22;9320;50.256;19.026;2023-06-24T12:18:41;20.80;97.80
18388;DHT22;9320;50.256;19.026;2023-06-24T12:21:10;21.00;97.30
18388;DHT22;9320;50.256;19.026;2023-06-24T12:23:39;21.10;96.20
18388;DHT22;9320;50.256;19.026;2023-06-24T12:26:07;21.20;95.70
18388;DHT22;9320;50.256;19.026;2023-06-24T12:28:35;21.10;95.20
18388;DHT22;9320;50.256;19.026;2023-06-24T12:31:03;21.20;95.30
18388;DHT22;9320;50.256;19.026;2023-06-24T12:33:31;21.40;94.90
18388;DHT22;9320;50.256;19.026;2023-06-24T12:35:59;21.40;94.10
18388;DHT22;9320;50.256;19.026;2023-06-24T12:38:27;21.50;93.60
18388;DHT22;9320;50.256;19.026;2023-06-24T12:40:57;21.30;94.10
18388;DHT22;9320;50.256;19.026;2023-06-24T12:43:25;21.00;94.40
18388;DHT22;9320;50.256;19.026;2023-06-24T12:45:53;21.00;95.10
18388;DHT22;9320;50.256;19.026;2023-06-24T12:48:22;20.80;95.50
18388;DHT22;9320;50.256;19.026;2023-06-24T12:50:50;20.90;96.00
18388;DHT22;9320;50.256;19.026;2023-06-24T12:53:20;21.10;95.60
18388;DHT22;9320;50.256;19.026;2023-06-24T12:55:49;21.20;95.10
18388;DHT22;9320;50.256;19.026;2023-06-24T12:58:22;21.00;95.20
18388;DHT22;9320;50.256;19.026;2023-06-24T13:00:51;21.00;95.40
18388;DHT22;9320;50.256;19.026;2023-06-24T13:03:19;21.10;95.20
18388;DHT22;9320;50.256;19.026;2023-06-24T13:05:47;21.10;95.20
18388;DHT22;9320;50.256;19.026;2023-06-24T13:08:15;21.20;95.00
18388;DHT22;9320;50.256;19.026;2023-06-24T13:10:43;21.20;94.90
18388;DHT22;9320;50.256;19.026;2023-06-24T13:13:11;21.00;94.60
18388;DHT22;9320;50.256;19.026;2023-06-24T13:15:41;21.00;95.10
18388;DHT22;9320;50.256;19.026;2023-06-24T13:18:09;21.00;95.40
18388;DHT22;9320;50.256;19.026;2023-06-24T13:20:37;20.90;95.30
18388;DHT22;9320;50.256;19.026;2023-06-24T13:23:05;20.90;95.50
18388;DHT22;9320;50.256;19.026;2023-06-24T13:25:33;20.80;95.50
18388;DHT22;9320;50.256;19.026;2023-06-24T13:28:02;20.80;95.50
18388;DHT22;9320;50.256;19.026;2023-06-24T13:30:31;20.70;95.90
18388;DHT22;9320;50.256;19.026;2023-06-24T13:33:00;20.80;95.80
18388;DHT22;9320;50.256;19.026;2023-06-24T13:35:29;20.80;95.90
18388;DHT22;9320;50.256;19.026;2023-06-24T13:37:57;20.70;96.00
18388;DHT22;9320;50.256;19.026;2023-06-24T13:40:25;20.70;95.60
18388;DHT22;9320;50.256;19.026;2023-06-24T13:42:53;20.80;95.10
18388;DHT22;9320;50.256;19.026;2023-06-24T13:45:21;20.90;94.80
18388;DHT22;9320;50.256;19.026;2023-06-24T13:47:49;20.90;94.30
18388;DHT22;9320;50.256;19.026;2023-06-24T13:50:19;21.00;94.30
18388;DHT22;9320;50.256;19.026;2023-06-24T13:52:47;21.10;93.50
18388;DHT22;9320;50.256;19.026;2023-06-24T13:55:15;21.20;93.10
18388;DHT22;9320;50.256;19.026;2023-06-24T13:57:43;21.30;92.90
18388;DHT22;9320;50.256;19.026;2023-06-24T14:00:12;21.40;92.60
18388;DHT22;9320;50.256;19.026;2023-06-24T14:02:40;21.50;92.40
18388;DHT22;9320;50.256;19.026;2023-06-24T14:05:09;21.50;92.20
18388;DHT22;9320;50.256;19.026;2023-06-24T14:07:38;21.50;92.20
18388;DHT22;9320;50.256;19.026;2023-06-24T14:10:07;21.60;91.20
18388;DHT22;9320;50.256;19.026;2023-06-24T14:12:35;21.50;91.30
18388;DHT22;9320;50.256;19.026;2023-06-24T14:15:05;21.60;91.10
18388;DHT22;9320;50.256;19.026;2023-06-24T14:17:33;21.60;90.40
18388;DHT22;9320;50.256;19.026;2023-06-24T14:20:01;21.50;89.70
18388;DHT22;9320;50.256;19.026;2023-06-24T14:22:29;21.50;89.30
18388;DHT22;9320;50.256;19.026;2023-06-24T14:24:59;21.50;88.90
18388;DHT22;9320;50.256;19.026;2023-06-24T14:27:27;21.50;89.10
18388;DHT22;9320;50.256;19.026;2023-06-24T14:29:55;21.50;87.50
18388;DHT22;9320;50.256;19.026;2023-06-24T14:32:23;21.40;87.80
18388;DHT22;9320;50.256;19.026;2023-06-24T14:34:54;21.40;87.30
18388;DHT22;9320;50.256;19.026;2023-06-24T14:37:22;21.40;87.80
18388;DHT22;9320;50.256;19.026;2023-06-24T14:39:50;21.50;87.50
18388;DHT22;9320;50.256;19.026;2023-06-24T14:42:19;21.40;87.50
18388;DHT22;9320;50.256;19.026;2023-06-24T14:44:47;21.40;88.20
18388;DHT22;9320;50.256;19.026;2023-06-24T14:47:15;21.50;88.50
18388;DHT22;9320;50.256;19.026;2023-06-24T14:49:43;21.30;88.00
18388;DHT22;9320;50.256;19.026;2023-06-24T14:52:11;21.20;87.80
18388;DHT22;9320;50.256;19.026;2023-06-24T14:54:39;21.20;87.90
18388;DHT22;9320;50.256;19.026;2023-06-24T14:57:07;21.20;88.40
18388;DHT22;9320;50.256;19.026;2023-06-24T14:59:37;21.20;87.90
18388;DHT22;9320;50.256;19.026;2023-06-24T15:02:05;21.20;87.70
18388;DHT22;9320;50.256;19.026;2023-06-24T15:04:33;21.10;88.80
18388;DHT22;9320;50.256;19.026;2023-06-24T15:07:01;21.10;88.50
18388;DHT22;9320;50.256;19.026;2023-06-24T15:09:29;21.20;88.80
18388;DHT22;9320;50.256;19.026;2023-06-24T15:11:57;21.20;88.00
18388;DHT22;9320;50.256;19.026;2023-06-24T15:14:25;21.00;88.20
18388;DHT22;9320;50.256;19.026;2023-06-24T15:16:55;20.80;89.10
18388;DHT22;9320;50.256;19.026;2023-06-24T15:19:25;20.90;89.10
18388;DHT22;9320;50.256;19.026;2023-06-24T15:21:53;21.00;88.60
18388;DHT22;9320;50.256;19.026;2023-06-24T15:24:21;21.00;87.80
18388;DHT22;9320;50.256;19.026;2023-06-24T15:26:49;21.00;87.30
18388;DHT22;9320;50.256;19.026;2023-06-24T15:29:17;20.90;87.40
18388;DHT22;9320;50.256;19.026;2023-06-24T15:31:45;20.80;88.10
18388;DHT22;9320;50.256;19.026;2023-06-24T15:34:15;20.80;88.60
18388;DHT22;9320;50.256;19.026;2023-06-24T15:36:43;20.90;88.60
18388;DHT22;9320;50.256;19.026;2023-06-24T15:39:11;21.00;88.20
18388;DHT22;9320;50.256;19.026;2023-06-24T15:41:39;21.00;87.60
18388;DHT22;9320;50.256;19.026;2023-06-24T15:44:07;21.00;87.30